createdAt,value
2023-03-28T00:07:05.435Z,3.70
2023-03-28T00:09:32.819Z,3.60
2023-03-28T00:21:51.070Z,3.80
2023-03-28T00:24:21.233Z,3.80
2023-03-28T00:29:23.127Z,3.70
2023-03-28T00:34:18.712Z,3.70
2023-03-28T00:39:13.329Z,3.40
2023-03-28T00:41:42.602Z,3.50
2023-03-28T00:44:47.014Z,3.50
2023-03-28T00:47:28.530Z,3.50
2023-03-28T00:50:05.359Z,4.00
2023-03-28T00:52:46.911Z,3.60
2023-03-28T00:55:19.294Z,3.60
2023-03-28T00:57:47.599Z,3.60
2023-03-28T01:00:18.692Z,3.70
2023-03-28T01:02:52.314Z,3.70
2023-03-28T01:05:27.114Z,3.50
2023-03-28T01:08:03.602Z,3.60
2023-03-28T01:10:32.595Z,3.60
2023-03-28T01:13:02.056Z,3.60
2023-03-28T01:15:30.693Z,3.50
2023-03-28T01:18:10.475Z,3.60
2023-03-28T01:21:08.127Z,3.70
2023-03-28T01:24:11.238Z,3.70
2023-03-28T01:27:09.268Z,3.60
2023-03-28T01:30:07.662Z,3.60
2023-03-28T01:33:15.886Z,6.30
2023-03-28T01:36:09.223Z,3.40
2023-03-28T01:39:00.598Z,3.60
2023-03-28T01:44:06.177Z,3.50
2023-03-28T01:46:38.931Z,3.60
2023-03-28T01:49:43.559Z,3.60
2023-03-28T01:52:27.891Z,3.60
2023-03-28T01:55:08.475Z,3.60
2023-03-28T01:58:02.006Z,3.50
2023-03-28T02:00:47.866Z,3.50
2023-03-28T02:03:47.784Z,3.60
2023-03-28T02:12:06.656Z,3.40
2023-03-28T02:14:58.226Z,3.40
2023-03-28T02:17:50.049Z,3.50
2023-03-28T02:20:46.046Z,3.40
2023-03-28T02:23:50.310Z,3.40
2023-03-28T02:29:18.727Z,3.50
2023-03-28T02:34:40.923Z,3.50
2023-03-28T02:37:26.800Z,3.50
2023-03-28T02:40:17.575Z,3.50
2023-03-28T02:43:01.151Z,3.40
2023-03-28T02:45:31.589Z,3.40
2023-03-28T02:48:09.782Z,3.40
2023-03-28T02:51:08.764Z,3.40
2023-03-28T02:53:45.853Z,3.40
2023-03-28T02:56:21.850Z,3.40
2023-03-28T02:59:13.327Z,3.30
2023-03-28T03:01:41.515Z,3.30
2023-03-28T03:06:36.675Z,3.20
2023-03-28T03:09:04.797Z,3.30
2023-03-28T03:11:32.275Z,3.20
2023-03-28T03:21:25.964Z,3.40
2023-03-28T03:41:34.371Z,3.30
2023-03-28T03:46:29.972Z,3.30
2023-03-28T03:53:54.292Z,3.90
2023-03-28T04:48:09.443Z,2.60
2023-03-28T05:03:19.032Z,2.70
2023-03-28T05:38:56.122Z,2.30
2023-03-28T06:01:12.832Z,2.30
2023-03-28T06:18:41.469Z,2.30
2023-03-28T06:26:03.404Z,2.20
2023-03-28T06:36:13.826Z,2.70
2023-03-28T06:46:07.883Z,3.30
2023-03-28T06:48:37.071Z,2.60
2023-03-28T06:56:28.290Z,4.40
2023-03-28T06:58:56.884Z,4.90
2023-03-28T07:08:58.487Z,5.60
2023-03-28T07:18:56.165Z,5.60
2023-03-28T07:36:27.902Z,5.20
2023-03-28T07:56:10.572Z,5.00
2023-03-28T08:06:38.290Z,4.70
2023-03-28T08:09:13.693Z,4.50
2023-03-28T08:11:43.869Z,4.70
2023-03-28T08:14:13.307Z,4.80
2023-03-28T08:42:36.445Z,5.00
2023-03-28T08:45:17.492Z,5.10
2023-03-28T08:48:04.915Z,5.10
2023-03-28T08:50:39.177Z,5.10
2023-03-28T08:53:12.813Z,5.30
2023-03-28T08:55:41.895Z,5.40
2023-03-28T08:58:21.004Z,5.40
2023-03-28T09:00:52.079Z,5.50
2023-03-28T09:03:21.713Z,5.50
2023-03-28T09:06:28.552Z,5.60
2023-03-28T09:09:21.892Z,5.70
2023-03-28T09:12:05.093Z,5.80
2023-03-28T09:14:41.755Z,5.90
2023-03-28T09:17:28.428Z,6.00
2023-03-28T09:20:23.756Z,6.10
2023-03-28T09:23:42.389Z,6.20
2023-03-28T09:26:35.869Z,6.40
2023-03-28T09:29:17.544Z,6.50
2023-03-28T09:31:49.677Z,6.50
2023-03-28T09:34:22.906Z,6.50
2023-03-28T09:36:55.523Z,6.50
2023-03-28T09:39:36.937Z,6.40
2023-03-28T09:42:30.044Z,6.40
2023-03-28T09:45:39.773Z,6.50
2023-03-28T09:48:30.087Z,6.50
2023-03-28T09:51:01.620Z,6.40
2023-03-28T09:53:37.543Z,6.40
2023-03-28T09:56:17.008Z,6.40
2023-03-28T09:58:48.565Z,6.40
2023-03-28T10:01:41.602Z,6.50
2023-03-28T10:04:28.259Z,6.80
2023-03-28T10:07:29.532Z,6.60
2023-03-28T10:10:17.329Z,6.70
2023-03-28T10:12:47.119Z,6.90
2023-03-28T10:15:30.285Z,6.80
2023-03-28T10:18:21.877Z,6.90
2023-03-28T10:21:13.204Z,6.90
2023-03-28T10:23:44.000Z,6.80
2023-03-28T10:26:16.627Z,6.80
2023-03-28T10:28:43.899Z,6.90
2023-03-28T10:31:29.690Z,6.90
2023-03-28T10:34:25.780Z,7.00
2023-03-28T10:45:01.230Z,7.00
2023-03-28T10:47:31.289Z,7.10
2023-03-28T10:53:10.673Z,7.10
2023-03-28T10:55:58.130Z,7.00
2023-03-28T10:58:44.450Z,6.90
2023-03-28T11:01:26.909Z,7.10
2023-03-28T11:04:28.029Z,7.00
2023-03-28T11:07:01.734Z,7.00
2023-03-28T11:10:19.295Z,7.20
2023-03-28T11:13:30.260Z,7.10
2023-03-28T11:16:06.815Z,7.20
2023-03-28T11:19:06.570Z,7.20
2023-03-28T11:21:54.228Z,7.30
2023-03-28T11:24:46.223Z,7.30
2023-03-28T11:28:07.465Z,7.30
2023-03-28T11:30:39.889Z,7.50
2023-03-28T11:34:05.009Z,7.50
2023-03-28T11:36:55.559Z,7.40
2023-03-28T11:39:53.636Z,7.20
2023-03-28T11:42:41.141Z,7.20
2023-03-28T11:45:46.827Z,7.20
2023-03-28T11:48:48.851Z,7.20
2023-03-28T11:54:12.195Z,7.30
2023-03-28T11:59:39.308Z,7.50
2023-03-28T12:02:30.947Z,7.50
2023-03-28T12:05:07.620Z,7.40
2023-03-28T12:07:55.379Z,7.40
2023-03-28T12:10:35.798Z,7.40
2023-03-28T12:13:14.536Z,7.40
2023-03-28T12:15:57.180Z,7.40
2023-03-28T12:18:38.647Z,7.20
2023-03-28T12:21:42.611Z,7.50
2023-03-28T12:24:36.195Z,7.30
2023-03-28T12:27:42.413Z,7.40
2023-03-28T12:33:05.436Z,7.50
2023-03-28T12:35:57.543Z,7.50
2023-03-28T12:38:58.568Z,7.60
2023-03-28T12:41:37.194Z,7.60
2023-03-28T12:44:10.848Z,7.60
2023-03-28T12:46:59.164Z,7.70
2023-03-28T12:49:50.896Z,7.70
2023-03-28T12:52:27.005Z,7.90
2023-03-28T12:55:01.092Z,8.00
2023-03-28T12:57:48.593Z,8.00
2023-03-28T13:01:04.280Z,8.10
2023-03-28T13:03:52.761Z,8.10
2023-03-28T13:06:57.451Z,7.90
2023-03-28T13:09:45.772Z,7.90
2023-03-28T13:12:46.100Z,8.00
2023-03-28T13:15:15.534Z,8.00
2023-03-28T13:17:47.094Z,8.10
2023-03-28T13:20:16.722Z,8.10
2023-03-28T13:22:49.923Z,8.20
2023-03-28T13:25:32.234Z,8.20
2023-03-28T13:30:29.618Z,8.30
2023-03-28T13:33:23.082Z,8.40
2023-03-28T13:35:58.640Z,8.30
2023-03-28T13:38:28.249Z,8.30
2023-03-28T13:41:09.058Z,8.40
2023-03-28T13:43:48.147Z,8.50
2023-03-28T13:46:22.083Z,8.50
2023-03-28T13:49:11.208Z,8.50
2023-03-28T13:52:06.680Z,8.60
2023-03-28T13:57:12.793Z,8.70
2023-03-28T14:00:02.451Z,8.60
2023-03-28T14:02:46.459Z,8.60
2023-03-28T14:05:25.705Z,8.60
2023-03-28T14:07:54.123Z,8.50
2023-03-28T14:10:30.242Z,8.40
2023-03-28T14:13:03.917Z,8.50
2023-03-28T14:15:38.685Z,8.50
2023-03-28T14:18:07.191Z,8.60
2023-03-28T14:20:34.491Z,8.50
2023-03-28T14:25:29.350Z,8.60
2023-03-28T14:27:57.217Z,8.40
2023-03-28T14:30:29.732Z,8.50
2023-03-28T14:32:59.096Z,8.60
2023-03-28T14:35:28.839Z,8.50
2023-03-28T14:37:57.929Z,8.60
2023-03-28T14:42:59.365Z,8.70
2023-03-28T14:45:28.377Z,8.80
2023-03-28T14:47:56.630Z,8.90
2023-03-28T14:55:21.724Z,9.10
2023-03-28T14:57:52.161Z,9.10
2023-03-28T15:00:22.871Z,9.20
2023-03-28T15:02:51.930Z,9.20
2023-03-28T15:05:21.362Z,9.00
2023-03-28T15:07:57.647Z,8.70
2023-03-28T15:10:25.619Z,8.80
2023-03-28T15:13:12.018Z,8.80
2023-03-28T15:15:43.557Z,8.70
2023-03-28T15:18:19.848Z,8.80
2023-03-28T15:20:51.448Z,8.70
2023-03-28T15:23:27.513Z,8.70
2023-03-28T15:25:54.992Z,8.60
2023-03-28T15:28:22.089Z,8.60
2023-03-28T15:30:49.831Z,8.70
2023-03-28T15:33:22.515Z,8.50
2023-03-28T15:38:21.206Z,8.70
2023-03-28T15:40:50.281Z,8.90
2023-03-28T15:43:25.851Z,11.70
2023-03-28T15:46:15.985Z,8.80
2023-03-28T15:51:15.896Z,9.00
2023-03-28T15:53:45.012Z,9.00
2023-03-28T15:56:32.129Z,9.00
2023-03-28T15:59:22.913Z,8.80
2023-03-28T16:04:21.761Z,9.00
2023-03-28T16:06:48.733Z,8.80
2023-03-28T16:09:22.097Z,9.10
2023-03-28T16:12:03.402Z,9.10
2023-03-28T16:14:47.155Z,9.10
2023-03-28T16:17:25.607Z,9.00
2023-03-28T16:37:18.482Z,8.80
2023-03-28T16:54:28.116Z,9.00
2023-03-28T17:04:17.383Z,8.90
2023-03-28T17:16:34.146Z,9.10
2023-03-28T17:21:27.983Z,8.90
2023-03-28T17:31:19.957Z,9.00
2023-03-28T17:33:47.691Z,9.00
2023-03-28T17:36:17.209Z,9.10
2023-03-28T17:41:13.686Z,8.90
2023-03-28T17:43:41.462Z,8.80
2023-03-28T17:46:09.677Z,9.20
2023-03-28T17:48:38.842Z,8.80
2023-03-28T17:51:06.362Z,8.80
2023-03-28T17:56:00.498Z,8.80
2023-03-28T18:00:55.191Z,8.90
2023-03-28T18:06:09.002Z,8.70
2023-03-28T18:08:36.259Z,8.70
2023-03-28T18:11:08.618Z,8.70
2023-03-28T18:13:36.660Z,8.70
2023-03-28T18:16:05.468Z,8.70
2023-03-28T18:18:32.874Z,8.60
2023-03-28T18:23:26.794Z,8.50
2023-03-28T18:33:19.439Z,8.50
2023-03-28T18:38:14.398Z,8.40
2023-03-28T18:43:09.506Z,8.30
2023-03-28T18:48:04.540Z,8.40
2023-03-28T18:55:25.872Z,8.30
2023-03-28T19:02:48.758Z,8.10
2023-03-28T19:05:16.946Z,8.10
2023-03-28T19:07:44.890Z,8.00
2023-03-28T19:10:13.313Z,7.90
2023-03-28T19:12:41.216Z,7.90
2023-03-28T19:15:10.340Z,7.90
2023-03-28T19:17:38.703Z,7.90
2023-03-28T19:20:15.552Z,7.90
2023-03-28T19:22:42.978Z,7.90
2023-03-28T19:25:10.499Z,7.70
2023-03-28T19:27:37.978Z,7.80
2023-03-28T19:30:05.403Z,7.80
2023-03-28T19:39:54.211Z,7.60
2023-03-28T19:54:37.343Z,7.40
2023-03-28T20:02:02.225Z,7.40
2023-03-28T20:09:24.098Z,7.20
2023-03-28T20:16:48.529Z,7.20
2023-03-28T20:31:37.071Z,6.90
2023-03-28T20:39:00.823Z,6.90
2023-03-28T20:41:29.752Z,6.90
2023-03-28T20:44:03.131Z,6.90
2023-03-28T20:46:36.689Z,6.80
2023-03-28T20:49:06.016Z,6.70
2023-03-28T20:54:04.834Z,6.70
2023-03-28T20:56:31.975Z,7.00
2023-03-28T20:58:59.416Z,6.80
2023-03-28T21:01:28.472Z,6.70
2023-03-28T21:03:59.773Z,6.90
2023-03-28T21:06:34.441Z,6.80
2023-03-28T21:09:04.510Z,6.90
2023-03-28T21:11:33.844Z,6.90
2023-03-28T21:14:01.343Z,6.90
2023-03-28T21:16:29.953Z,6.90
2023-03-28T21:23:52.975Z,6.90
2023-03-28T21:26:22.568Z,6.80
2023-03-28T21:31:24.000Z,8.30
2023-03-28T21:33:51.627Z,6.90
2023-03-28T21:36:19.665Z,6.90
2023-03-28T21:46:08.967Z,7.00
2023-03-28T21:48:36.669Z,6.90
2023-03-28T21:53:34.192Z,7.00
2023-03-28T21:58:30.788Z,7.00
2023-03-28T22:03:26.308Z,7.20
2023-03-28T22:05:54.265Z,7.10
2023-03-28T22:08:22.096Z,7.10
2023-03-28T22:10:58.308Z,7.10
2023-03-28T22:15:52.808Z,6.80
2023-03-28T22:20:52.991Z,6.90
2023-03-28T22:33:10.953Z,6.70
2023-03-28T22:38:05.750Z,6.70
2023-03-28T22:40:32.801Z,6.70
2023-03-28T22:45:27.080Z,6.60
2023-03-28T22:52:52.704Z,6.60
2023-03-28T22:55:22.134Z,6.50
2023-03-28T22:57:51.545Z,6.50
2023-03-28T23:00:19.085Z,6.20
2023-03-28T23:10:16.302Z,6.40
2023-03-28T23:12:43.848Z,6.30
2023-03-28T23:15:11.085Z,6.40
2023-03-28T23:20:12.192Z,6.10
2023-03-28T23:22:43.994Z,6.20
2023-03-28T23:25:15.338Z,6.20
2023-03-28T23:27:43.035Z,6.20
2023-03-28T23:30:12.002Z,6.10
2023-03-28T23:35:07.042Z,6.00
2023-03-28T23:42:43.542Z,6.00
2023-03-28T23:45:11.523Z,5.90
2023-03-28T23:50:06.480Z,5.80
2023-03-28T23:57:28.581Z,6.00
2023-03-28T23:59:56.431Z,5.80
